If you wish to contribute or participate in the discussions about articles you are invited to join SKYbrary as a registered user

 Actions

Minden-Tahoe Airport

From SKYbrary Wiki

KMEV
Airport
ICAO: KMEV – IATA: MEV
Summary
Name Minden-Tahoe Airport
Region North America
Territory United States US.gif
Location Minden, Nevada
Serving Minden
Elevation 1,440.485 m
4,726 ft
4,726 ft1,440.485 m
Coordinates 39° 0' 1.98" N, 119° 45' 8.30" W
Runways
Designator Length Width Surface ROPS
12/30 1615 m5,298.556 ft
23 m75.459 ft
ASPH-G yes/yes
12G/30G 671 m2,201.444 ft
18 m59.055 ft
DIRT-G /
16/34 2256 m7,401.575 ft
30 m98.425 ft
ASP yes/yes


METAR
Observation KMEV 151615Z AUTO 00000KT 10SM CLR 20/M01 A3005 RMK AO2
Station Minden-Tahoe Airport
Date/Time 15 September 2019 16:15:00
Wind direction
Wind speed 00 kts
Lowest cloud amount n/a
Temperature 20°C
Dew point
Humidity 24%
QNH hPa
Weather condition n/a

Maps

Terrain

Loading map...

Airport Layout

Loading map...


Accidents & Serious Incidents at or in vicinity of KMEV

None on SKYbrary